sensor_id;sensor_type;location;lat;lon;timestamp;P1;durP1;ratioP1;P2;durP2;ratioP2
68188;SDS011;66299;47.514;19.218;2023-08-30T00:01:22;7.28;;;2.90;;
68188;SDS011;66299;47.514;19.218;2023-08-30T00:03:53;7.68;;;2.97;;
68188;SDS011;66299;47.514;19.218;2023-08-30T00:06:21;9.38;;;3.20;;
68188;SDS011;66299;47.514;19.218;2023-08-30T00:08:52;9.00;;;3.20;;
68188;SDS011;66299;47.514;19.218;2023-08-30T00:11:21;10.60;;;3.37;;
68188;SDS011;66299;47.514;19.218;2023-08-30T00:13:51;13.38;;;3.70;;
68188;SDS011;66299;47.514;19.218;2023-08-30T00:16:20;7.63;;;3.35;;
68188;SDS011;66299;47.514;19.218;2023-08-30T00:18:49;9.30;;;3.53;;
68188;SDS011;66299;47.514;19.218;2023-08-30T00:21:18;11.27;;;3.70;;
68188;SDS011;66299;47.514;19.218;2023-08-30T00:23:48;8.85;;;3.75;;
68188;SDS011;66299;47.514;19.218;2023-08-30T00:26:21;10.05;;;3.80;;
68188;SDS011;66299;47.514;19.218;2023-08-30T00:28:50;10.02;;;3.72;;
68188;SDS011;66299;47.514;19.218;2023-08-30T00:31:18;12.15;;;3.75;;
68188;SDS011;66299;47.514;19.218;2023-08-30T00:33:48;10.00;;;3.67;;
68188;SDS011;66299;47.514;19.218;2023-08-30T00:36:18;11.13;;;3.65;;
68188;SDS011;66299;47.514;19.218;2023-08-30T00:38:46;9.02;;;3.85;;
68188;SDS011;66299;47.514;19.218;2023-08-30T00:41:17;8.48;;;3.83;;
68188;SDS011;66299;47.514;19.218;2023-08-30T00:43:45;12.70;;;4.50;;
68188;SDS011;66299;47.514;19.218;2023-08-30T00:46:14;9.48;;;4.35;;
68188;SDS011;66299;47.514;19.218;2023-08-30T00:48:44;11.85;;;4.47;;
68188;SDS011;66299;47.514;19.218;2023-08-30T00:51:15;10.85;;;4.93;;
68188;SDS011;66299;47.514;19.218;2023-08-30T00:53:44;11.20;;;5.10;;
68188;SDS011;66299;47.514;19.218;2023-08-30T00:56:13;11.05;;;5.60;;
68188;SDS011;66299;47.514;19.218;2023-08-30T00:58:45;13.02;;;5.43;;
68188;SDS011;66299;47.514;19.218;2023-08-30T01:01:14;12.20;;;6.03;;
68188;SDS011;66299;47.514;19.218;2023-08-30T01:03:43;12.80;;;5.72;;
68188;SDS011;66299;47.514;19.218;2023-08-30T01:06:12;14.88;;;6.45;;
68188;SDS011;66299;47.514;19.218;2023-08-30T01:08:41;13.50;;;6.60;;
68188;SDS011;66299;47.514;19.218;2023-08-30T01:11:11;11.75;;;6.30;;
68188;SDS011;66299;47.514;19.218;2023-08-30T01:13:50;12.80;;;6.45;;
68188;SDS011;66299;47.514;19.218;2023-08-30T01:16:21;13.10;;;6.57;;
68188;SDS011;66299;47.514;19.218;2023-08-30T01:18:52;14.13;;;6.30;;
68188;SDS011;66299;47.514;19.218;2023-08-30T01:21:27;10.80;;;6.05;;
68188;SDS011;66299;47.514;19.218;2023-08-30T01:24:06;13.95;;;6.28;;
68188;SDS011;66299;47.514;19.218;2023-08-30T01:26:40;15.60;;;6.57;;
68188;SDS011;66299;47.514;19.218;2023-08-30T01:29:14;13.73;;;7.10;;
68188;SDS011;66299;47.514;19.218;2023-08-30T01:31:45;17.73;;;7.72;;
68188;SDS011;66299;47.514;19.218;2023-08-30T01:34:16;18.58;;;7.80;;
68188;SDS011;66299;47.514;19.218;2023-08-30T01:36:44;18.35;;;8.98;;
68188;SDS011;66299;47.514;19.218;2023-08-30T01:39:13;21.85;;;9.50;;
68188;SDS011;66299;47.514;19.218;2023-08-30T01:41:43;17.38;;;9.32;;
68188;SDS011;66299;47.514;19.218;2023-08-30T01:44:16;18.33;;;9.88;;
68188;SDS011;66299;47.514;19.218;2023-08-30T01:46:47;18.67;;;10.43;;
68188;SDS011;66299;47.514;19.218;2023-08-30T01:49:16;19.45;;;10.98;;
68188;SDS011;66299;47.514;19.218;2023-08-30T01:51:45;21.05;;;11.18;;
68188;SDS011;66299;47.514;19.218;2023-08-30T01:54:15;18.88;;;11.00;;
68188;SDS011;66299;47.514;19.218;2023-08-30T01:56:49;19.48;;;10.82;;
68188;SDS011;66299;47.514;19.218;2023-08-30T01:59:19;22.23;;;10.90;;
68188;SDS011;66299;47.514;19.218;2023-08-30T02:01:47;20.23;;;11.45;;
68188;SDS011;66299;47.514;19.218;2023-08-30T02:04:16;19.73;;;11.20;;
68188;SDS011;66299;47.514;19.218;2023-08-30T02:06:50;20.58;;;10.90;;
68188;SDS011;66299;47.514;19.218;2023-08-30T02:09:26;19.98;;;11.50;;
68188;SDS011;66299;47.514;19.218;2023-08-30T02:12:00;22.08;;;12.15;;
68188;SDS011;66299;47.514;19.218;2023-08-30T02:14:34;22.02;;;12.48;;
68188;SDS011;66299;47.514;19.218;2023-08-30T02:19:34;22.05;;;12.80;;
68188;SDS011;66299;47.514;19.218;2023-08-30T02:22:03;22.40;;;12.55;;
68188;SDS011;66299;47.514;19.218;2023-08-30T02:24:32;20.92;;;12.77;;
68188;SDS011;66299;47.514;19.218;2023-08-30T02:27:01;22.73;;;12.93;;
68188;SDS011;66299;47.514;19.218;2023-08-30T02:29:29;25.42;;;13.50;;
68188;SDS011;66299;47.514;19.218;2023-08-30T02:32:02;26.02;;;13.23;;
68188;SDS011;66299;47.514;19.218;2023-08-30T02:34:31;25.00;;;13.52;;
68188;SDS011;66299;47.514;19.218;2023-08-30T02:37:02;24.80;;;14.27;;
68188;SDS011;66299;47.514;19.218;2023-08-30T02:39:31;24.90;;;13.50;;
68188;SDS011;66299;47.514;19.218;2023-08-30T02:41:59;28.48;;;14.45;;
68188;SDS011;66299;47.514;19.218;2023-08-30T02:44:27;25.77;;;13.88;;
68188;SDS011;66299;47.514;19.218;2023-08-30T02:46:56;25.60;;;14.55;;
68188;SDS011;66299;47.514;19.218;2023-08-30T02:49:27;26.95;;;13.93;;
68188;SDS011;66299;47.514;19.218;2023-08-30T02:51:58;25.55;;;14.55;;
68188;SDS011;66299;47.514;19.218;2023-08-30T02:54:26;26.60;;;14.13;;
68188;SDS011;66299;47.514;19.218;2023-08-30T02:56:55;28.48;;;15.18;;
68188;SDS011;66299;47.514;19.218;2023-08-30T02:59:23;26.90;;;14.82;;
68188;SDS011;66299;47.514;19.218;2023-08-30T03:01:53;29.02;;;14.95;;
68188;SDS011;66299;47.514;19.218;2023-08-30T03:04:21;28.98;;;15.35;;
68188;SDS011;66299;47.514;19.218;2023-08-30T03:06:52;27.88;;;15.23;;
68188;SDS011;66299;47.514;19.218;2023-08-30T03:09:20;28.73;;;15.23;;
68188;SDS011;66299;47.514;19.218;2023-08-30T03:11:49;29.90;;;15.00;;
68188;SDS011;66299;47.514;19.218;2023-08-30T03:14:18;30.85;;;16.20;;
68188;SDS011;66299;47.514;19.218;2023-08-30T03:16:50;31.45;;;15.90;;
68188;SDS011;66299;47.514;19.218;2023-08-30T03:19:18;29.40;;;15.95;;
68188;SDS011;66299;47.514;19.218;2023-08-30T03:21:48;34.35;;;16.42;;
68188;SDS011;66299;47.514;19.218;2023-08-30T03:24:20;31.92;;;15.82;;
68188;SDS011;66299;47.514;19.218;2023-08-30T03:26:48;32.45;;;16.15;;
68188;SDS011;66299;47.514;19.218;2023-08-30T03:29:17;36.45;;;17.05;;
68188;SDS011;66299;47.514;19.218;2023-08-30T03:31:47;37.17;;;16.88;;
68188;SDS011;66299;47.514;19.218;2023-08-30T03:34:15;37.50;;;17.42;;
68188;SDS011;66299;47.514;19.218;2023-08-30T03:36:44;38.35;;;17.88;;
68188;SDS011;66299;47.514;19.218;2023-08-30T03:39:17;34.97;;;17.17;;
68188;SDS011;66299;47.514;19.218;2023-08-30T03:41:47;34.13;;;16.23;;
68188;SDS011;66299;47.514;19.218;2023-08-30T03:44:16;33.00;;;15.87;;
68188;SDS011;66299;47.514;19.218;2023-08-30T03:46:45;36.00;;;16.67;;
68188;SDS011;66299;47.514;19.218;2023-08-30T03:49:13;42.00;;;17.27;;
68188;SDS011;66299;47.514;19.218;2023-08-30T03:51:41;41.05;;;17.73;;
68188;SDS011;66299;47.514;19.218;2023-08-30T03:54:14;36.63;;;17.42;;
68188;SDS011;66299;47.514;19.218;2023-08-30T03:56:44;36.78;;;17.02;;
68188;SDS011;66299;47.514;19.218;2023-08-30T03:59:14;35.78;;;16.65;;
68188;SDS011;66299;47.514;19.218;2023-08-30T04:01:43;37.28;;;17.33;;
68188;SDS011;66299;47.514;19.218;2023-08-30T04:04:11;36.70;;;17.63;;
68188;SDS011;66299;47.514;19.218;2023-08-30T04:06:41;40.67;;;17.67;;
68188;SDS011;66299;47.514;19.218;2023-08-30T04:09:10;38.83;;;18.15;;
68188;SDS011;66299;47.514;19.218;2023-08-30T04:11:39;41.10;;;17.85;;
68188;SDS011;66299;47.514;19.218;2023-08-30T04:14:08;37.83;;;17.40;;
68188;SDS011;66299;47.514;19.218;2023-08-30T04:16:44;38.63;;;17.25;;
68188;SDS011;66299;47.514;19.218;2023-08-30T04:19:14;37.50;;;16.67;;
68188;SDS011;66299;47.514;19.218;2023-08-30T04:21:45;31.85;;;15.52;;
68188;SDS011;66299;47.514;19.218;2023-08-30T04:24:13;32.83;;;15.90;;
68188;SDS011;66299;47.514;19.218;2023-08-30T04:26:42;34.08;;;15.98;;
68188;SDS011;66299;47.514;19.218;2023-08-30T04:29:10;36.47;;;16.08;;
68188;SDS011;66299;47.514;19.218;2023-08-30T04:31:42;34.40;;;16.08;;
68188;SDS011;66299;47.514;19.218;2023-08-30T04:34:11;33.72;;;15.43;;
68188;SDS011;66299;47.514;19.218;2023-08-30T04:36:39;30.63;;;15.57;;
68188;SDS011;66299;47.514;19.218;2023-08-30T04:39:08;34.10;;;15.00;;
68188;SDS011;66299;47.514;19.218;2023-08-30T04:44:08;28.90;;;14.20;;
68188;SDS011;66299;47.514;19.218;2023-08-30T04:46:38;27.35;;;14.00;;
68188;SDS011;66299;47.514;19.218;2023-08-30T04:49:09;26.23;;;13.32;;
68188;SDS011;66299;47.514;19.218;2023-08-30T04:51:38;30.63;;;14.33;;
68188;SDS011;66299;47.514;19.218;2023-08-30T04:54:09;27.73;;;13.18;;
68188;SDS011;66299;47.514;19.218;2023-08-30T04:56:37;28.33;;;13.48;;
68188;SDS011;66299;47.514;19.218;2023-08-30T04:59:07;29.45;;;13.57;;
68188;SDS011;66299;47.514;19.218;2023-08-30T05:01:35;24.73;;;12.75;;
68188;SDS011;66299;47.514;19.218;2023-08-30T05:04:04;26.10;;;12.00;;
68188;SDS011;66299;47.514;19.218;2023-08-30T05:06:35;22.20;;;11.57;;
68188;SDS011;66299;47.514;19.218;2023-08-30T05:09:05;25.30;;;12.23;;
68188;SDS011;66299;47.514;19.218;2023-08-30T05:11:34;23.85;;;11.60;;
68188;SDS011;66299;47.514;19.218;2023-08-30T05:14:03;24.90;;;12.02;;
68188;SDS011;66299;47.514;19.218;2023-08-30T05:16:34;24.17;;;11.55;;
68188;SDS011;66299;47.514;19.218;2023-08-30T05:19:02;23.75;;;11.98;;
68188;SDS011;66299;47.514;19.218;2023-08-30T05:21:31;24.48;;;11.77;;
68188;SDS011;66299;47.514;19.218;2023-08-30T05:24:04;25.38;;;11.35;;
68188;SDS011;66299;47.514;19.218;2023-08-30T05:26:34;22.77;;;11.13;;
68188;SDS011;66299;47.514;19.218;2023-08-30T05:29:02;21.50;;;10.32;;
68188;SDS011;66299;47.514;19.218;2023-08-30T05:31:30;22.95;;;9.60;;
68188;SDS011;66299;47.514;19.218;2023-08-30T05:33:59;19.77;;;9.88;;
68188;SDS011;66299;47.514;19.218;2023-08-30T05:36:27;20.02;;;9.75;;
68188;SDS011;66299;47.514;19.218;2023-08-30T05:38:56;18.45;;;9.75;;
68188;SDS011;66299;47.514;19.218;2023-08-30T05:41:27;18.52;;;9.63;;
68188;SDS011;66299;47.514;19.218;2023-08-30T05:43:56;20.70;;;10.23;;
68188;SDS011;66299;47.514;19.218;2023-08-30T05:46:28;17.13;;;9.30;;
68188;SDS011;66299;47.514;19.218;2023-08-30T05:48:58;18.27;;;9.68;;
68188;SDS011;66299;47.514;19.218;2023-08-30T05:51:27;17.42;;;9.80;;
68188;SDS011;66299;47.514;19.218;2023-08-30T05:53:55;21.00;;;9.65;;
68188;SDS011;66299;47.514;19.218;2023-08-30T05:56:24;15.68;;;8.70;;
68188;SDS011;66299;47.514;19.218;2023-08-30T05:58:55;17.25;;;9.27;;
68188;SDS011;66299;47.514;19.218;2023-08-30T06:01:23;18.70;;;8.48;;
68188;SDS011;66299;47.514;19.218;2023-08-30T06:03:53;14.30;;;8.20;;
68188;SDS011;66299;47.514;19.218;2023-08-30T06:06:21;14.13;;;7.72;;
68188;SDS011;66299;47.514;19.218;2023-08-30T06:08:49;17.05;;;8.43;;
68188;SDS011;66299;47.514;19.218;2023-08-30T06:11:22;17.02;;;8.48;;
68188;SDS011;66299;47.514;19.218;2023-08-30T06:13:50;14.48;;;7.80;;
68188;SDS011;66299;47.514;19.218;2023-08-30T06:16:20;14.60;;;8.30;;
68188;SDS011;66299;47.514;19.218;2023-08-30T06:18:49;15.00;;;7.82;;
68188;SDS011;66299;47.514;19.218;2023-08-30T06:21:17;13.02;;;6.80;;
68188;SDS011;66299;47.514;19.218;2023-08-30T06:23:46;14.48;;;7.32;;
68188;SDS011;66299;47.514;19.218;2023-08-30T06:26:15;13.52;;;7.05;;
68188;SDS011;66299;47.514;19.218;2023-08-30T06:28:43;14.48;;;7.20;;
68188;SDS011;66299;47.514;19.218;2023-08-30T06:31:36;16.55;;;7.28;;
68188;SDS011;66299;47.514;19.218;2023-08-30T06:34:06;12.68;;;7.20;;
68188;SDS011;66299;47.514;19.218;2023-08-30T06:36:36;13.30;;;6.88;;
68188;SDS011;66299;47.514;19.218;2023-08-30T06:39:04;13.40;;;7.07;;
68188;SDS011;66299;47.514;19.218;2023-08-30T06:41:35;13.90;;;6.72;;
68188;SDS011;66299;47.514;19.218;2023-08-30T06:44:04;14.68;;;7.68;;
68188;SDS011;66299;47.514;19.218;2023-08-30T06:46:33;14.00;;;7.45;;
68188;SDS011;66299;47.514;19.218;2023-08-30T06:49:06;15.17;;;8.13;;
68188;SDS011;66299;47.514;19.218;2023-08-30T06:51:36;14.57;;;7.00;;
68188;SDS011;66299;47.514;19.218;2023-08-30T06:54:05;14.63;;;6.72;;
68188;SDS011;66299;47.514;19.218;2023-08-30T06:56:35;14.48;;;6.88;;
68188;SDS011;66299;47.514;19.218;2023-08-30T06:59:04;12.93;;;6.63;;
68188;SDS011;66299;47.514;19.218;2023-08-30T07:01:33;13.43;;;6.50;;
68188;SDS011;66299;47.514;19.218;2023-08-30T07:04:03;12.43;;;6.65;;
68188;SDS011;66299;47.514;19.218;2023-08-30T07:06:36;12.37;;;6.47;;
68188;SDS011;66299;47.514;19.218;2023-08-30T07:09:07;11.63;;;6.40;;
68188;SDS011;66299;47.514;19.218;2023-08-30T07:11:38;17.15;;;6.53;;
68188;SDS011;66299;47.514;19.218;2023-08-30T07:14:08;13.15;;;6.82;;
68188;SDS011;66299;47.514;19.218;2023-08-30T07:16:38;15.43;;;7.27;;
68188;SDS011;66299;47.514;19.218;2023-08-30T07:19:07;11.65;;;6.65;;
68188;SDS011;66299;47.514;19.218;2023-08-30T07:21:39;12.98;;;7.00;;
68188;SDS011;66299;47.514;19.218;2023-08-30T07:24:08;11.10;;;6.07;;
68188;SDS011;66299;47.514;19.218;2023-08-30T07:26:38;13.75;;;7.30;;
68188;SDS011;66299;47.514;19.218;2023-08-30T07:29:09;15.73;;;7.07;;
68188;SDS011;66299;47.514;19.218;2023-08-30T07:31:39;11.85;;;6.35;;
68188;SDS011;66299;47.514;19.218;2023-08-30T07:36:41;13.77;;;6.50;;
68188;SDS011;66299;47.514;19.218;2023-08-30T07:39:14;12.52;;;6.70;;
68188;SDS011;66299;47.514;19.218;2023-08-30T07:41:43;12.98;;;6.60;;
68188;SDS011;66299;47.514;19.218;2023-08-30T07:44:12;12.80;;;6.57;;
68188;SDS011;66299;47.514;19.218;2023-08-30T07:46:43;15.48;;;6.50;;
68188;SDS011;66299;47.514;19.218;2023-08-30T07:49:11;11.38;;;6.32;;
68188;SDS011;66299;47.514;19.218;2023-08-30T07:51:45;14.43;;;6.65;;
68188;SDS011;66299;47.514;19.218;2023-08-30T07:54:15;12.45;;;6.63;;
68188;SDS011;66299;47.514;19.218;2023-08-30T07:56:44;11.40;;;5.82;;
68188;SDS011;66299;47.514;19.218;2023-08-30T07:59:14;10.50;;;5.68;;
68188;SDS011;66299;47.514;19.218;2023-08-30T08:01:43;11.20;;;6.03;;
68188;SDS011;66299;47.514;19.218;2023-08-30T08:04:11;11.85;;;5.93;;
68188;SDS011;66299;47.514;19.218;2023-08-30T08:06:42;11.00;;;5.60;;
68188;SDS011;66299;47.514;19.218;2023-08-30T08:09:24;12.88;;;6.30;;
68188;SDS011;66299;47.514;19.218;2023-08-30T08:11:53;13.45;;;7.05;;
68188;SDS011;66299;47.514;19.218;2023-08-30T08:14:23;18.85;;;9.25;;
68188;SDS011;66299;47.514;19.218;2023-08-30T08:16:52;16.02;;;9.77;;
68188;SDS011;66299;47.514;19.218;2023-08-30T08:19:20;19.08;;;9.50;;
68188;SDS011;66299;47.514;19.218;2023-08-30T08:21:52;16.08;;;9.27;;
68188;SDS011;66299;47.514;19.218;2023-08-30T08:24:22;15.32;;;8.60;;
68188;SDS011;66299;47.514;19.218;2023-08-30T08:26:54;12.95;;;7.90;;
68188;SDS011;66299;47.514;19.218;2023-08-30T08:29:22;16.35;;;7.65;;
68188;SDS011;66299;47.514;19.218;2023-08-30T08:31:50;13.20;;;6.50;;
68188;SDS011;66299;47.514;19.218;2023-08-30T08:34:20;13.63;;;7.05;;
68188;SDS011;66299;47.514;19.218;2023-08-30T08:36:53;13.67;;;7.93;;
68188;SDS011;66299;47.514;19.218;2023-08-30T08:39:26;15.40;;;8.35;;
68188;SDS011;66299;47.514;19.218;2023-08-30T08:41:54;14.23;;;8.45;;
68188;SDS011;66299;47.514;19.218;2023-08-30T08:44:24;15.57;;;8.50;;
68188;SDS011;66299;47.514;19.218;2023-08-30T08:46:55;14.50;;;7.90;;
68188;SDS011;66299;47.514;19.218;2023-08-30T08:49:23;14.52;;;7.60;;
68188;SDS011;66299;47.514;19.218;2023-08-30T08:51:54;16.17;;;7.60;;
68188;SDS011;66299;47.514;19.218;2023-08-30T08:54:23;15.18;;;7.68;;
68188;SDS011;66299;47.514;19.218;2023-08-30T08:56:53;13.20;;;7.43;;
68188;SDS011;66299;47.514;19.218;2023-08-30T08:59:22;18.40;;;7.90;;
68188;SDS011;66299;47.514;19.218;2023-08-30T09:01:51;14.75;;;7.47;;
68188;SDS011;66299;47.514;19.218;2023-08-30T09:04:21;14.77;;;6.65;;
68188;SDS011;66299;47.514;19.218;2023-08-30T09:06:50;16.02;;;7.70;;
68188;SDS011;66299;47.514;19.218;2023-08-30T09:09:21;14.07;;;7.30;;
68188;SDS011;66299;47.514;19.218;2023-08-30T09:11:49;13.32;;;7.07;;
68188;SDS011;66299;47.514;19.218;2023-08-30T09:14:24;12.70;;;7.13;;
68188;SDS011;66299;47.514;19.218;2023-08-30T09:16:56;13.27;;;7.30;;
68188;SDS011;66299;47.514;19.218;2023-08-30T09:19:25;16.08;;;7.57;;
68188;SDS011;66299;47.514;19.218;2023-08-30T09:21:57;13.93;;;6.97;;
68188;SDS011;66299;47.514;19.218;2023-08-30T09:24:36;15.07;;;7.30;;
68188;SDS011;66299;47.514;19.218;2023-08-30T09:27:07;14.35;;;7.45;;
68188;SDS011;66299;47.514;19.218;2023-08-30T09:29:35;15.30;;;7.60;;
68188;SDS011;66299;47.514;19.218;2023-08-30T09:32:04;13.68;;;7.22;;
68188;SDS011;66299;47.514;19.218;2023-08-30T09:34:32;15.30;;;8.13;;
68188;SDS011;66299;47.514;19.218;2023-08-30T09:37:01;16.55;;;7.45;;
68188;SDS011;66299;47.514;19.218;2023-08-30T09:39:32;14.20;;;7.15;;
68188;SDS011;66299;47.514;19.218;2023-08-30T09:42:02;14.38;;;7.40;;
68188;SDS011;66299;47.514;19.218;2023-08-30T09:44:32;14.73;;;7.53;;
68188;SDS011;66299;47.514;19.218;2023-08-30T09:47:02;12.48;;;6.63;;
68188;SDS011;66299;47.514;19.218;2023-08-30T09:49:34;12.40;;;6.60;;
68188;SDS011;66299;47.514;19.218;2023-08-30T09:52:12;15.85;;;7.13;;
68188;SDS011;66299;47.514;19.218;2023-08-30T09:54:43;14.68;;;7.10;;
68188;SDS011;66299;47.514;19.218;2023-08-30T09:57:14;14.15;;;6.82;;
68188;SDS011;66299;47.514;19.218;2023-08-30T09:59:45;15.73;;;6.90;;
68188;SDS011;66299;47.514;19.218;2023-08-30T10:02:13;12.27;;;6.40;;
68188;SDS011;66299;47.514;19.218;2023-08-30T10:04:43;16.33;;;7.18;;
68188;SDS011;66299;47.514;19.218;2023-08-30T10:07:13;14.55;;;6.75;;
68188;SDS011;66299;47.514;19.218;2023-08-30T10:09:45;16.33;;;6.82;;
68188;SDS011;66299;47.514;19.218;2023-08-30T10:12:36;12.95;;;6.78;;
68188;SDS011;66299;47.514;19.218;2023-08-30T10:15:10;15.32;;;7.72;;
68188;SDS011;66299;47.514;19.218;2023-08-30T10:17:40;14.07;;;6.60;;
68188;SDS011;66299;47.514;19.218;2023-08-30T10:20:12;15.63;;;7.10;;
68188;SDS011;66299;47.514;19.218;2023-08-30T10:22:41;12.70;;;7.15;;
68188;SDS011;66299;47.514;19.218;2023-08-30T10:25:12;13.02;;;6.47;;
68188;SDS011;66299;47.514;19.218;2023-08-30T10:27:46;13.88;;;7.00;;
68188;SDS011;66299;47.514;19.218;2023-08-30T10:30:22;11.68;;;6.40;;
68188;SDS011;66299;47.514;19.218;2023-08-30T10:32:51;14.02;;;6.80;;
68188;SDS011;66299;47.514;19.218;2023-08-30T10:35:20;13.80;;;6.53;;
68188;SDS011;66299;47.514;19.218;2023-08-30T10:37:55;13.00;;;6.15;;
68188;SDS011;66299;47.514;19.218;2023-08-30T10:40:28;13.07;;;6.45;;
68188;SDS011;66299;47.514;19.218;2023-08-30T10:43:00;13.10;;;6.72;;
68188;SDS011;66299;47.514;19.218;2023-08-30T10:45:32;13.88;;;6.40;;
68188;SDS011;66299;47.514;19.218;2023-08-30T10:48:00;15.18;;;6.65;;
68188;SDS011;66299;47.514;19.218;2023-08-30T10:50:31;14.63;;;6.43;;
68188;SDS011;66299;47.514;19.218;2023-08-30T10:53:12;14.88;;;8.38;;
68188;SDS011;66299;47.514;19.218;2023-08-30T10:55:41;15.57;;;6.80;;
68188;SDS011;66299;47.514;19.218;2023-08-30T10:58:38;15.25;;;6.72;;
68188;SDS011;66299;47.514;19.218;2023-08-30T11:01:09;15.70;;;6.00;;
68188;SDS011;66299;47.514;19.218;2023-08-30T11:03:41;13.95;;;5.63;;
68188;SDS011;66299;47.514;19.218;2023-08-30T11:06:13;12.35;;;5.47;;
68188;SDS011;66299;47.514;19.218;2023-08-30T11:08:43;12.73;;;5.60;;
68188;SDS011;66299;47.514;19.218;2023-08-30T11:11:11;12.98;;;5.72;;
68188;SDS011;66299;47.514;19.218;2023-08-30T11:13:41;11.93;;;5.15;;
68188;SDS011;66299;47.514;19.218;2023-08-30T11:16:13;10.85;;;5.07;;
68188;SDS011;66299;47.514;19.218;2023-08-30T11:21:20;11.35;;;5.13;;
68188;SDS011;66299;47.514;19.218;2023-08-30T11:23:48;10.57;;;4.97;;
68188;SDS011;66299;47.514;19.218;2023-08-30T11:26:17;11.02;;;4.80;;
68188;SDS011;66299;47.514;19.218;2023-08-30T11:28:45;11.23;;;5.15;;
68188;SDS011;66299;47.514;19.218;2023-08-30T11:31:20;9.65;;;4.70;;
68188;SDS011;66299;47.514;19.218;2023-08-30T11:33:51;10.55;;;4.88;;
68188;SDS011;66299;47.514;19.218;2023-08-30T11:36:21;11.20;;;4.57;;
68188;SDS011;66299;47.514;19.218;2023-08-30T11:38:52;9.32;;;4.53;;
68188;SDS011;66299;47.514;19.218;2023-08-30T11:41:20;9.75;;;4.70;;
68188;SDS011;66299;47.514;19.218;2023-08-30T11:43:50;11.68;;;4.53;;
68188;SDS011;66299;47.514;19.218;2023-08-30T11:46:20;10.93;;;4.30;;
68188;SDS011;66299;47.514;19.218;2023-08-30T11:48:50;11.15;;;4.30;;
68188;SDS011;66299;47.514;19.218;2023-08-30T11:51:19;9.80;;;4.20;;
68188;SDS011;66299;47.514;19.218;2023-08-30T11:53:48;9.63;;;4.03;;
68188;SDS011;66299;47.514;19.218;2023-08-30T11:56:17;9.65;;;4.20;;
68188;SDS011;66299;47.514;19.218;2023-08-30T11:58:49;9.60;;;3.80;;
68188;SDS011;66299;47.514;19.218;2023-08-30T12:01:18;10.10;;;3.70;;
68188;SDS011;66299;47.514;19.218;2023-08-30T12:03:48;8.70;;;3.80;;
68188;SDS011;66299;47.514;19.218;2023-08-30T12:06:17;10.57;;;3.70;;
68188;SDS011;66299;47.514;19.218;2023-08-30T12:08:46;10.23;;;3.70;;
68188;SDS011;66299;47.514;19.218;2023-08-30T12:11:17;9.93;;;3.90;;
68188;SDS011;66299;47.514;19.218;2023-08-30T12:13:47;8.27;;;3.28;;
68188;SDS011;66299;47.514;19.218;2023-08-30T12:16:17;9.10;;;3.38;;
68188;SDS011;66299;47.514;19.218;2023-08-30T12:18:49;8.90;;;3.17;;
68188;SDS011;66299;47.514;19.218;2023-08-30T12:21:18;9.35;;;3.42;;
68188;SDS011;66299;47.514;19.218;2023-08-30T12:26:31;8.98;;;3.40;;
68188;SDS011;66299;47.514;19.218;2023-08-30T12:29:00;8.13;;;3.40;;
68188;SDS011;66299;47.514;19.218;2023-08-30T12:31:30;8.95;;;3.38;;
68188;SDS011;66299;47.514;19.218;2023-08-30T12:34:00;8.80;;;3.53;;
68188;SDS011;66299;47.514;19.218;2023-08-30T12:36:29;8.18;;;3.35;;
68188;SDS011;66299;47.514;19.218;2023-08-30T12:39:00;8.82;;;3.50;;
68188;SDS011;66299;47.514;19.218;2023-08-30T12:41:31;7.90;;;3.30;;
68188;SDS011;66299;47.514;19.218;2023-08-30T12:44:04;9.93;;;3.50;;
68188;SDS011;66299;47.514;19.218;2023-08-30T12:46:33;8.43;;;3.50;;
68188;SDS011;66299;47.514;19.218;2023-08-30T12:49:07;9.38;;;3.40;;
68188;SDS011;66299;47.514;19.218;2023-08-30T12:51:37;9.23;;;3.53;;
68188;SDS011;66299;47.514;19.218;2023-08-30T12:54:06;8.65;;;3.53;;
68188;SDS011;66299;47.514;19.218;2023-08-30T12:56:34;8.60;;;3.30;;
68188;SDS011;66299;47.514;19.218;2023-08-30T12:59:03;8.90;;;3.78;;
68188;SDS011;66299;47.514;19.218;2023-08-30T13:01:32;9.15;;;3.50;;
68188;SDS011;66299;47.514;19.218;2023-08-30T13:04:00;10.23;;;3.42;;
68188;SDS011;66299;47.514;19.218;2023-08-30T13:06:31;9.82;;;3.60;;
68188;SDS011;66299;47.514;19.218;2023-08-30T13:09:00;9.98;;;3.80;;
68188;SDS011;66299;47.514;19.218;2023-08-30T13:11:30;8.73;;;3.50;;
68188;SDS011;66299;47.514;19.218;2023-08-30T13:13:59;8.88;;;3.55;;
68188;SDS011;66299;47.514;19.218;2023-08-30T13:16:27;9.05;;;3.47;;
68188;SDS011;66299;47.514;19.218;2023-08-30T13:18:55;11.20;;;3.83;;
68188;SDS011;66299;47.514;19.218;2023-08-30T13:21:24;10.45;;;3.72;;
68188;SDS011;66299;47.514;19.218;2023-08-30T13:24:08;9.00;;;3.58;;
68188;SDS011;66299;47.514;19.218;2023-08-30T13:26:36;9.45;;;3.30;;
68188;SDS011;66299;47.514;19.218;2023-08-30T13:29:05;10.00;;;3.45;;
68188;SDS011;66299;47.514;19.218;2023-08-30T13:31:34;9.25;;;3.67;;
68188;SDS011;66299;47.514;19.218;2023-08-30T13:34:05;9.40;;;3.42;;
68188;SDS011;66299;47.514;19.218;2023-08-30T13:36:33;10.45;;;3.60;;
68188;SDS011;66299;47.514;19.218;2023-08-30T13:39:03;8.25;;;3.30;;
68188;SDS011;66299;47.514;19.218;2023-08-30T13:41:33;8.75;;;3.30;;
68188;SDS011;66299;47.514;19.218;2023-08-30T13:44:04;8.07;;;3.22;;
68188;SDS011;66299;47.514;19.218;2023-08-30T13:46:32;9.32;;;3.55;;
68188;SDS011;66299;47.514;19.218;2023-08-30T13:49:01;8.68;;;3.42;;
68188;SDS011;66299;47.514;19.218;2023-08-30T13:51:29;8.82;;;3.08;;
68188;SDS011;66299;47.514;19.218;2023-08-30T13:53:58;8.38;;;3.60;;
68188;SDS011;66299;47.514;19.218;2023-08-30T13:56:27;7.78;;;3.28;;
68188;SDS011;66299;47.514;19.218;2023-08-30T13:58:58;7.60;;;3.30;;
68188;SDS011;66299;47.514;19.218;2023-08-30T14:01:26;8.75;;;3.40;;
68188;SDS011;66299;47.514;19.218;2023-08-30T14:03:55;8.98;;;3.50;;
68188;SDS011;66299;47.514;19.218;2023-08-30T14:06:24;8.30;;;3.40;;
68188;SDS011;66299;47.514;19.218;2023-08-30T14:08:52;8.23;;;3.30;;
68188;SDS011;66299;47.514;19.218;2023-08-30T14:11:20;9.70;;;3.40;;
68188;SDS011;66299;47.514;19.218;2023-08-30T14:13:49;8.90;;;3.40;;
68188;SDS011;66299;47.514;19.218;2023-08-30T14:16:20;9.95;;;3.60;;
68188;SDS011;66299;47.514;19.218;2023-08-30T14:18:53;8.43;;;3.38;;
68188;SDS011;66299;47.514;19.218;2023-08-30T14:21:22;8.77;;;3.30;;
68188;SDS011;66299;47.514;19.218;2023-08-30T14:23:50;7.50;;;2.97;;
68188;SDS011;66299;47.514;19.218;2023-08-30T14:26:21;8.65;;;3.50;;
68188;SDS011;66299;47.514;19.218;2023-08-30T14:28:53;7.50;;;3.00;;
68188;SDS011;66299;47.514;19.218;2023-08-30T14:31:23;8.25;;;3.20;;
68188;SDS011;66299;47.514;19.218;2023-08-30T14:33:55;9.98;;;3.30;;
68188;SDS011;66299;47.514;19.218;2023-08-30T14:36:24;8.52;;;3.70;;
68188;SDS011;66299;47.514;19.218;2023-08-30T14:38:53;8.68;;;3.13;;
68188;SDS011;66299;47.514;19.218;2023-08-30T14:41:22;9.57;;;3.33;;
68188;SDS011;66299;47.514;19.218;2023-08-30T14:43:53;8.32;;;3.30;;
68188;SDS011;66299;47.514;19.218;2023-08-30T14:46:23;8.98;;;3.40;;
68188;SDS011;66299;47.514;19.218;2023-08-30T14:48:51;10.63;;;3.72;;
68188;SDS011;66299;47.514;19.218;2023-08-30T14:51:20;8.52;;;3.38;;